Time;durP1;ratioP1;P1;durP2;ratioP2;P2;SDS_P1;SDS_P2;PMS_P1;PMS_P2;Temp;Humidity;BMP_temperature;BMP_pressure;BME280_temperature;BME280_humidity;BME280_pressure;Samples;Min_cycle;Max_cycle;Signal;HPM_P1;HPM_P2
2023/05/09 00:01:28;;;;;;;10.02;4.40;;;;;;;13.01;100.00;96585.06;5042461;28;20197;-69
2023/05/09 00:03:55;;;;;;;7.93;4.27;;;;;;;13.18;100.00;96582.00;5044057;28;20197;-71
2023/05/09 00:06:21;;;;;;;4.97;2.70;;;;;;;13.24;100.00;96580.44;5045881;28;20220;-69
2023/05/09 00:08:48;;;;;;;5.57;3.33;;;;;;;13.23;100.00;96586.78;5045641;28;20197;-69
2023/05/09 00:11:14;;;;;;;8.38;2.80;;;;;;;13.22;100.00;96574.53;5046232;28;20208;-69
2023/05/09 00:13:43;;;;;;;8.57;3.60;;;;;;;13.17;100.00;96572.44;5045948;28;20212;-69
2023/05/09 00:16:10;;;;;;;6.57;3.47;;;;;;;12.99;100.00;96561.41;5046109;28;20217;-69
2023/05/09 00:18:41;;;;;;;7.07;3.77;;;;;;;12.94;100.00;96570.91;5045030;28;20232;-69
2023/05/09 00:21:07;;;;;;;6.32;4.15;;;;;;;13.06;100.00;96566.78;5045859;28;20551;-69
2023/05/09 00:23:34;;;;;;;6.63;4.17;;;;;;;13.03;100.00;96552.09;5045694;28;20296;-70
2023/05/09 00:26:00;;;;;;;7.50;4.07;;;;;;;12.98;100.00;96554.50;5045613;28;20217;-70
2023/05/09 00:28:27;;;;;;;7.78;3.63;;;;;;;13.02;100.00;96547.00;5044394;28;20197;-68
2023/05/09 00:30:55;;;;;;;8.73;3.80;;;;;;;13.11;100.00;96553.81;5044839;28;20290;-70
2023/05/09 00:33:25;;;;;;;11.33;4.97;;;;;;;13.09;100.00;96545.28;5045380;28;20233;-70
2023/05/09 00:35:52;;;;;;;7.60;3.78;;;;;;;13.13;100.00;96549.19;5045641;28;20225;-69
2023/05/09 00:38:18;;;;;;;9.30;4.63;;;;;;;13.08;100.00;96544.44;5044437;28;20221;-69
2023/05/09 00:40:44;;;;;;;12.70;4.93;;;;;;;13.05;100.00;96534.22;5045139;28;20575;-69
2023/05/09 00:43:11;;;;;;;7.90;3.80;;;;;;;13.26;100.00;96544.84;5045980;28;20569;-69
2023/05/09 00:45:37;;;;;;;7.93;4.73;;;;;;;13.26;100.00;96539.56;5045447;28;20724;-71
2023/05/09 00:48:06;;;;;;;7.78;3.67;;;;;;;13.43;100.00;96531.22;5045637;28;20205;-69
2023/05/09 00:50:32;;;;;;;8.60;4.73;;;;;;;13.37;100.00;96525.84;5046005;28;20220;-69
2023/05/09 00:52:59;;;;;;;7.32;3.47;;;;;;;13.39;100.00;96529.97;5045161;28;20584;-69
2023/05/09 00:55:27;;;;;;;7.93;4.03;;;;;;;13.43;100.00;96522.47;5045372;28;20255;-70
2023/05/09 00:57:53;;;;;;;8.10;3.63;;;;;;;13.42;100.00;96529.56;5044062;28;20259;-70
2023/05/09 01:00:20;;;;;;;12.20;4.85;;;;;;;13.27;100.00;96522.69;5044910;28;20208;-71
2023/05/09 01:02:49;;;;;;;10.52;4.07;;;;;;;13.34;100.00;96520.94;5044571;28;20883;-69
2023/05/09 01:05:17;;;;;;;8.17;4.87;;;;;;;13.38;100.00;96519.56;5044790;28;20205;-70
2023/05/09 01:07:50;;;;;;;6.88;3.20;;;;;;;13.38;100.00;96522.22;5044411;28;20214;-68
2023/05/09 01:10:25;;;;;;;7.13;4.10;;;;;;;13.33;100.00;96526.41;5044879;28;20229;-69
2023/05/09 01:12:58;;;;;;;9.65;4.13;;;;;;;13.29;100.00;96519.84;5045312;28;20563;-69
2023/05/09 01:15:31;;;;;;;11.02;3.75;;;;;;;13.27;100.00;96522.69;5044748;28;20201;-71
2023/05/09 01:18:03;;;;;;;6.60;4.05;;;;;;;13.21;100.00;96519.97;5044220;28;20229;-69
2023/05/09 01:20:35;;;;;;;6.20;3.30;;;;;;;13.24;100.00;96522.22;5045162;28;20205;-69
2023/05/09 01:23:22;;;;;;;8.70;5.07;;;;;;;13.20;100.00;96516.50;5045298;28;20288;-69
2023/05/09 01:26:01;;;;;;;5.68;3.33;;;;;;;13.13;100.00;96515.59;5045451;28;20225;-68
2023/05/09 01:28:43;;;;;;;7.72;3.65;;;;;;;13.10;100.00;96513.34;5044499;28;20232;-69
2023/05/09 01:31:11;;;;;;;10.30;5.27;;;;;;;13.03;100.00;96517.72;5044219;28;20271;-69
2023/05/09 01:33:40;;;;;;;9.27;4.05;;;;;;;12.98;100.00;96513.97;5044541;28;20232;-69
2023/05/09 01:36:12;;;;;;;13.05;5.57;;;;;;;13.08;100.00;96501.28;5044301;28;20740;-69
2023/05/09 01:38:40;;;;;;;9.38;4.60;;;;;;;12.93;100.00;96505.78;5043730;28;20236;-69
2023/05/09 01:41:09;;;;;;;8.75;3.70;;;;;;;12.90;100.00;96508.81;5044327;28;20212;-68
2023/05/09 01:43:37;;;;;;;8.10;4.55;;;;;;;12.81;100.00;96512.53;5044728;28;20205;-69
2023/05/09 01:46:05;;;;;;;10.65;4.57;;;;;;;12.79;100.00;96510.06;5043853;28;20217;-68
2023/05/09 01:48:36;;;;;;;8.27;4.25;;;;;;;12.77;100.00;96514.69;5043457;28;20568;-69
2023/05/09 01:51:04;;;;;;;6.63;4.07;;;;;;;12.76;100.00;96516.72;5043856;28;20237;-70
2023/05/09 01:53:32;;;;;;;7.80;4.03;;;;;;;12.69;100.00;96507.88;5044096;28;20569;-70
2023/05/09 01:55:59;;;;;;;8.32;4.35;;;;;;;12.72;100.00;96510.97;5043672;28;20743;-70
2023/05/09 01:58:27;;;;;;;9.32;4.05;;;;;;;12.64;100.00;96507.59;5043071;28;20343;-70
2023/05/09 02:00:54;;;;;;;9.93;4.50;;;;;;;12.59;100.00;96502.88;5043407;28;20205;-69
2023/05/09 02:03:21;;;;;;;8.73;4.43;;;;;;;12.61;100.00;96500.84;5043558;28;20588;-69
2023/05/09 02:05:50;;;;;;;7.77;3.97;;;;;;;12.59;100.00;96504.69;5044020;28;20248;-71
2023/05/09 02:08:20;;;;;;;4.97;3.23;;;;;;;12.52;100.00;96501.94;5042957;28;20194;-70
2023/05/09 02:10:48;;;;;;;6.97;3.87;;;;;;;12.42;100.00;96506.72;5043363;28;20205;-70
2023/05/09 02:13:15;;;;;;;6.10;3.10;;;;;;;12.41;100.00;96506.88;5043690;28;20197;-70
2023/05/09 02:15:42;;;;;;;10.23;3.40;;;;;;;12.38;100.00;96508.03;5043276;28;20228;-70
2023/05/09 02:18:09;;;;;;;7.33;3.90;;;;;;;12.16;100.00;96505.50;5043025;28;20239;-70
2023/05/09 02:20:36;;;;;;;6.90;3.97;;;;;;;12.02;100.00;96508.91;5042842;28;20569;-69
2023/05/09 02:23:04;;;;;;;3.70;2.67;;;;;;;12.17;100.00;96505.31;5041439;28;20197;-69
2023/05/09 02:25:32;;;;;;;5.13;2.33;;;;;;;12.11;100.00;96507.03;5042777;28;20240;-70
2023/05/09 02:27:59;;;;;;;3.47;2.03;;;;;;;12.17;100.00;96507.94;5042191;28;20250;-70
2023/05/09 02:30:28;;;;;;;4.73;2.80;;;;;;;12.05;100.00;96502.47;5043162;28;20212;-69
2023/05/09 02:32:59;;;;;;;4.73;2.77;;;;;;;12.05;100.00;96499.81;5043201;28;20217;-69
2023/05/09 02:35:27;;;;;;;6.53;3.27;;;;;;;11.98;100.00;96502.34;5042825;28;20255;-69
2023/05/09 02:37:55;;;;;;;4.63;2.50;;;;;;;11.97;100.00;96505.19;5042590;28;20240;-69
2023/05/09 02:40:26;;;;;;;3.90;3.17;;;;;;;11.97;100.00;96500.72;5042747;28;20216;-69
2023/05/09 02:42:52;;;;;;;2.33;1.70;;;;;;;11.91;100.00;96504.06;5043244;28;20213;-68
2023/05/09 02:45:19;;;;;;;3.27;2.17;;;;;;;11.95;100.00;96496.59;5043030;28;20673;-70
2023/05/09 02:47:45;;;;;;;2.93;1.90;;;;;;;11.87;100.00;96499.31;5042181;28;20220;-71
2023/05/09 02:50:12;;;;;;;2.47;1.90;;;;;;;11.87;100.00;96500.13;5042642;28;20197;-70
2023/05/09 02:52:38;;;;;;;3.57;2.03;;;;;;;11.83;100.00;96498.03;5043374;28;20573;-70
2023/05/09 02:55:06;;;;;;;5.87;2.43;;;;;;;11.65;100.00;96495.69;5042639;28;20206;-69
2023/05/09 02:57:34;;;;;;;5.07;2.90;;;;;;;11.59;100.00;96491.13;5041658;28;20253;-70
2023/05/09 03:00:01;;;;;;;6.63;2.80;;;;;;;11.38;100.00;96487.47;5042941;28;20288;-69
2023/05/09 03:02:27;;;;;;;5.57;2.87;;;;;;;11.40;100.00;96474.91;5042677;28;20258;-70
2023/05/09 03:04:54;;;;;;;8.63;4.07;;;;;;;11.56;100.00;96475.66;5042910;28;20375;-70
2023/05/09 03:07:20;;;;;;;7.97;4.00;;;;;;;11.51;100.00;96471.91;5042408;28;20213;-69
2023/05/09 03:09:46;;;;;;;3.73;3.00;;;;;;;11.35;100.00;96474.63;5042880;28;20201;-69
2023/05/09 03:12:13;;;;;;;7.13;4.23;;;;;;;11.40;100.00;96474.91;5042606;28;20665;-70
2023/05/09 03:14:41;;;;;;;5.07;2.83;;;;;;;11.59;100.00;96485.03;5042736;28;20604;-69
2023/05/09 03:17:07;;;;;;;6.00;3.17;;;;;;;11.63;100.00;96481.03;5041787;28;20230;-68
2023/05/09 03:19:33;;;;;;;8.40;3.43;;;;;;;11.76;100.00;96475.97;5042079;28;20231;-69
2023/05/09 03:22:00;;;;;;;8.27;2.73;;;;;;;11.79;100.00;96475.63;5042415;28;20205;-70
2023/05/09 03:24:27;;;;;;;12.57;3.93;;;;;;;11.74;100.00;96478.00;5042017;28;20579;-68
2023/05/09 03:26:53;;;;;;;16.10;4.33;;;;;;;11.62;100.00;96469.69;5041811;28;20221;-68
2023/05/09 03:29:20;;;;;;;6.63;3.47;;;;;;;11.54;100.00;96476.81;5041936;28;20197;-69
2023/05/09 03:31:48;;;;;;;8.10;3.63;;;;;;;11.64;100.00;96474.78;5042136;28;20263;-70
2023/05/09 03:34:14;;;;;;;8.47;4.23;;;;;;;11.73;100.00;96471.88;5041864;28;20237;-70
2023/05/09 03:36:42;;;;;;;10.07;4.60;;;;;;;11.83;100.00;96474.28;5042362;28;20352;-70
2023/05/09 03:39:08;;;;;;;8.23;3.50;;;;;;;11.82;100.00;96470.00;5040838;28;20594;-71
2023/05/09 03:41:35;;;;;;;7.00;3.80;;;;;;;11.87;100.00;96471.09;5042170;28;20254;-70
2023/05/09 03:44:02;;;;;;;7.23;3.53;;;;;;;11.90;100.00;96480.47;5041564;28;20285;-69
2023/05/09 03:46:28;;;;;;;10.23;4.50;;;;;;;12.07;100.00;96487.25;5042169;28;20224;-70
2023/05/09 03:48:56;;;;;;;11.97;5.10;;;;;;;12.19;100.00;96478.69;5041406;28;20212;-69
2023/05/09 03:51:23;;;;;;;11.87;4.83;;;;;;;12.15;100.00;96481.91;5042072;28;20694;-70
2023/05/09 03:53:49;;;;;;;8.10;3.97;;;;;;;12.12;100.00;96479.59;5042217;28;20201;-70
2023/05/09 03:56:15;;;;;;;10.17;4.60;;;;;;;12.23;100.00;96487.91;5041707;28;20228;-70
2023/05/09 03:58:42;;;;;;;9.90;4.27;;;;;;;12.19;100.00;96481.34;5041680;28;20462;-69
2023/05/09 04:01:08;;;;;;;9.27;4.13;;;;;;;12.32;100.00;96484.16;5041971;28;20197;-69
2023/05/09 04:03:36;;;;;;;7.33;4.10;;;;;;;12.27;100.00;96482.09;5042356;28;20212;-69
2023/05/09 04:06:05;;;;;;;7.60;3.70;;;;;;;12.43;100.00;96481.91;5042631;28;20271;-69
2023/05/09 04:08:32;;;;;;;9.97;4.60;;;;;;;12.43;100.00;96483.72;5042674;28;20578;-68
2023/05/09 04:10:58;;;;;;;9.00;4.67;;;;;;;12.28;100.00;96473.16;5042837;28;20946;-68
2023/05/09 04:13:25;;;;;;;10.80;3.83;;;;;;;12.15;100.00;96466.84;5043752;28;20204;-71
2023/05/09 04:15:51;;;;;;;8.90;4.27;;;;;;;12.08;100.00;96465.09;5042665;28;20229;-68
2023/05/09 04:18:18;;;;;;;10.20;3.77;;;;;;;12.03;100.00;96465.66;5042034;28;20240;-70
2023/05/09 04:20:45;;;;;;;7.53;3.63;;;;;;;12.04;100.00;96467.31;5042874;28;20205;-68
2023/05/09 04:23:12;;;;;;;7.17;2.67;;;;;;;12.04;100.00;96466.47;5042546;28;20201;-70
2023/05/09 04:25:39;;;;;;;8.73;4.30;;;;;;;11.94;100.00;96463.25;5041803;28;20435;-70
2023/05/09 04:28:05;;;;;;;7.63;3.60;;;;;;;11.67;100.00;96461.19;5041116;28;20205;-68
2023/05/09 04:30:32;;;;;;;6.40;3.07;;;;;;;11.69;100.00;96464.50;5041503;28;20209;-70
2023/05/09 04:32:58;;;;;;;9.67;4.40;;;;;;;11.55;100.00;96454.72;5041672;28;20932;-69
2023/05/09 04:35:25;;;;;;;7.63;3.47;;;;;;;11.44;100.00;96457.72;5041795;28;20209;-70
2023/05/09 04:37:51;;;;;;;8.33;4.93;;;;;;;11.45;100.00;96459.38;5040978;28;20197;-69
2023/05/09 04:40:19;;;;;;;7.27;3.73;;;;;;;11.55;100.00;96452.88;5040943;28;20232;-69
2023/05/09 04:42:46;;;;;;;9.10;3.40;;;;;;;11.68;100.00;96463.69;5041935;28;20552;-69
2023/05/09 05:05:05;;;;;;;9.63;5.15;;;;;;;12.04;100.00;96447.97;5060063;27;21050;-68
2023/05/09 05:07:32;;;;;;;10.00;4.33;;;;;;;11.97;100.00;96449.72;5059096;28;20220;-68
2023/05/09 05:09:59;;;;;;;4.97;2.35;;;;;;;11.92;100.00;96449.44;5059656;28;20208;-69
2023/05/09 05:12:25;;;;;;;5.45;3.13;;;;;;;12.10;100.00;96449.91;5059871;28;20204;-69
2023/05/09 05:14:51;;;;;;;4.83;2.93;;;;;;;12.11;100.00;96454.19;5059382;28;20670;-69
2023/05/09 05:17:18;;;;;;;10.35;4.20;;;;;;;12.35;100.00;96450.28;5059785;28;20216;-68
2023/05/09 05:19:44;;;;;;;8.30;3.93;;;;;;;12.35;100.00;96452.13;5059353;28;20206;-69
2023/05/09 05:22:12;;;;;;;9.17;4.33;;;;;;;12.55;100.00;96445.25;5059662;28;20212;-68
2023/05/09 05:24:38;;;;;;;9.10;4.03;;;;;;;12.61;100.00;96447.97;5059669;28;20220;-68
2023/05/09 05:27:05;;;;;;;8.17;4.03;;;;;;;12.62;100.00;96446.16;5059393;28;20224;-69
2023/05/09 05:29:31;;;;;;;4.70;3.07;;;;;;;12.53;100.00;96442.78;5058134;28;20665;-68
2023/05/09 05:31:58;;;;;;;6.95;3.53;;;;;;;12.29;100.00;96443.06;5059373;28;20201;-68
2023/05/09 05:34:24;;;;;;;5.30;3.23;;;;;;;12.23;100.00;96443.81;5059184;28;20197;-68
2023/05/09 05:36:50;;;;;;;6.83;3.03;;;;;;;12.12;100.00;96440.81;5059124;28;20220;-68
2023/05/09 05:39:18;;;;;;;7.80;3.70;;;;;;;12.27;100.00;96445.09;5058714;28;20258;-69
2023/05/09 05:41:45;;;;;;;9.10;4.17;;;;;;;12.36;100.00;96433.44;5059013;28;20250;-68
2023/05/09 05:44:11;;;;;;;4.27;2.67;;;;;;;12.45;100.00;96434.97;5059083;28;20591;-68
2023/05/09 05:46:38;;;;;;;8.67;4.33;;;;;;;12.44;100.00;96441.25;5059103;28;20222;-68
2023/05/09 05:49:04;;;;;;;7.83;3.03;;;;;;;12.51;100.00;96442.19;5058258;28;20201;-69
2023/05/09 05:51:31;;;;;;;5.38;3.42;;;;;;;12.66;100.00;96448.25;5059194;28;20282;-71
2023/05/09 05:53:57;;;;;;;8.05;3.67;;;;;;;12.78;100.00;96446.78;5059361;28;20204;-68
2023/05/09 05:56:25;;;;;;;8.93;4.22;;;;;;;12.96;100.00;96449.88;5059164;28;20221;-68
2023/05/09 05:58:52;;;;;;;7.80;3.17;;;;;;;12.93;100.00;96443.13;5058175;28;20666;-68
2023/05/09 06:01:19;;;;;;;8.60;3.80;;;;;;;12.94;100.00;96441.31;5059182;28;20291;-71
2023/05/09 06:03:45;;;;;;;11.73;3.93;;;;;;;12.92;100.00;96428.25;5058588;28;20597;-69
2023/05/09 06:06:12;;;;;;;10.15;4.00;;;;;;;12.93;100.00;96437.00;5058749;28;20220;-68
2023/05/09 06:08:38;;;;;;;9.87;3.47;;;;;;;12.88;100.00;96434.94;5057838;28;20216;-68
2023/05/09 06:11:05;;;;;;;6.50;3.60;;;;;;;12.72;100.00;96431.66;5057895;28;20669;-68
2023/05/09 06:13:33;;;;;;;8.63;3.40;;;;;;;12.61;100.00;96433.94;5058114;28;20208;-68
2023/05/09 06:15:59;;;;;;;7.43;4.00;;;;;;;12.76;100.00;96430.28;5047559;28;20520;-68
2023/05/09 06:18:26;;;;;;;8.63;4.20;;;;;;;12.97;100.00;96427.69;5044438;28;20212;-69
2023/05/09 06:20:52;;;;;;;5.22;3.33;;;;;;;13.03;100.00;96421.66;5044645;28;20228;-68
2023/05/09 06:23:21;;;;;;;8.18;3.42;;;;;;;13.07;100.00;96433.50;5045113;28;20197;-68
2023/05/09 06:25:47;;;;;;;10.65;5.05;;;;;;;13.12;100.00;96431.13;5044890;28;20310;-70
2023/05/09 06:28:14;;;;;;;7.43;3.53;;;;;;;13.00;100.00;96432.63;5044649;28;20494;-69
2023/05/09 06:30:42;;;;;;;8.93;4.53;;;;;;;13.26;100.00;96430.25;5044927;28;20212;-68
2023/05/09 06:33:08;;;;;;;8.50;4.47;;;;;;;13.26;100.00;96427.59;5044788;28;20212;-68
2023/05/09 06:35:35;;;;;;;6.57;3.53;;;;;;;13.14;100.00;96427.28;5044898;28;20322;-68
2023/05/09 06:38:01;;;;;;;7.82;3.53;;;;;;;13.42;100.00;96423.69;5044365;28;20210;-68
2023/05/09 06:40:28;;;;;;;9.38;4.43;;;;;;;13.47;100.00;96425.78;5044514;28;20205;-68
2023/05/09 06:42:54;;;;;;;8.43;4.07;;;;;;;13.58;100.00;96428.75;5044510;28;20201;-68
2023/05/09 06:45:21;;;;;;;7.53;4.05;;;;;;;13.93;100.00;96427.78;5044444;28;20321;-69
2023/05/09 06:47:48;;;;;;;10.82;4.97;;;;;;;13.89;100.00;96429.19;5044076;28;20201;-69
2023/05/09 06:50:15;;;;;;;10.25;4.07;;;;;;;13.83;100.00;96427.28;5044790;28;20201;-68
2023/05/09 06:52:41;;;;;;;8.20;4.13;;;;;;;14.11;100.00;96425.50;5044704;28;20208;-68
2023/05/09 06:55:09;;;;;;;8.07;4.10;;;;;;;14.34;100.00;96421.56;5044475;28;20536;-68
2023/05/09 06:57:36;;;;;;;10.30;4.30;;;;;;;14.29;100.00;96428.47;5043486;28;20543;-69
2023/05/09 07:00:04;;;;;;;11.57;4.57;;;;;;;14.55;100.00;96418.00;5044104;28;20201;-68
2023/05/09 07:02:30;;;;;;;10.70;4.53;;;;;;;14.41;100.00;96411.81;5044450;28;20589;-68
2023/05/09 07:04:58;;;;;;;11.48;4.22;;;;;;;14.46;100.00;96403.28;5044095;28;20257;-68
2023/05/09 07:07:25;;;;;;;11.38;5.00;;;;;;;14.54;100.00;96403.13;5043400;28;20224;-69
2023/05/09 07:09:51;;;;;;;7.95;4.15;;;;;;;14.71;100.00;96400.75;5043840;28;20688;-68
2023/05/09 07:12:18;;;;;;;8.18;4.28;;;;;;;14.80;100.00;96396.06;5043986;28;20201;-69
2023/05/09 07:14:44;;;;;;;13.13;5.60;;;;;;;14.79;100.00;96389.97;5043979;28;20223;-69
2023/05/09 07:17:11;;;;;;;9.13;4.22;;;;;;;14.90;100.00;96386.72;5043957;28;20237;-69
2023/05/09 07:19:37;;;;;;;12.25;4.93;;;;;;;14.96;100.00;96382.47;5043505;28;20205;-69
2023/05/09 07:22:05;;;;;;;14.70;7.68;;;;;;;15.13;100.00;96387.19;5044126;28;20201;-70
2023/05/09 07:24:31;;;;;;;11.32;4.80;;;;;;;15.22;100.00;96375.38;5043911;28;20229;-69
2023/05/09 07:26:58;;;;;;;9.52;4.90;;;;;;;15.14;100.00;96372.91;5042334;28;20229;-69
2023/05/09 07:29:24;;;;;;;8.40;4.18;;;;;;;15.49;100.00;96374.41;5043454;28;20685;-68
2023/05/09 07:31:51;;;;;;;9.77;3.72;;;;;;;15.38;99.23;96369.72;5044003;28;20197;-71
2023/05/09 07:34:18;;;;;;;11.73;5.15;;;;;;;15.41;100.00;96358.66;5044210;28;20422;-69
2023/05/09 07:36:45;;;;;;;8.55;4.43;;;;;;;15.65;100.00;96360.72;5043670;28;20713;-69
2023/05/09 07:39:13;;;;;;;6.10;3.53;;;;;;;15.72;96.75;96364.19;5043240;28;20208;-72
2023/05/09 07:41:39;;;;;;;10.00;4.72;;;;;;;15.58;100.00;96346.59;5043503;28;20448;-68
2023/05/09 07:44:06;;;;;;;13.35;5.18;;;;;;;15.69;100.00;96349.47;5044018;28;20313;-68
2023/05/09 07:46:32;;;;;;;11.48;5.38;;;;;;;15.75;100.00;96355.81;5044151;28;20228;-69
2023/05/09 07:48:58;;;;;;;12.15;4.95;;;;;;;15.82;100.00;96348.66;5042722;28;20468;-69
2023/05/09 07:51:25;;;;;;;8.10;4.63;;;;;;;15.94;95.13;96342.50;5043468;28;20569;-69
2023/05/09 07:53:53;;;;;;;13.80;5.55;;;;;;;16.16;98.11;96344.69;5043241;28;20197;-69
2023/05/09 07:56:22;;;;;;;9.85;4.70;;;;;;;15.97;100.00;96340.25;5043064;28;20540;-69
2023/05/09 07:58:48;;;;;;;11.23;5.78;;;;;;;16.37;100.00;96340.97;5042681;28;20237;-69
2023/05/09 08:01:15;;;;;;;13.48;5.05;;;;;;;16.24;99.70;96344.50;5043216;28;20197;-69
2023/05/09 08:03:41;;;;;;;14.13;5.88;;;;;;;16.05;96.47;96341.84;5042836;28;20213;-69
2023/05/09 08:06:08;;;;;;;14.75;5.72;;;;;;;16.01;99.54;96336.16;5042785;28;20592;-69
2023/05/09 08:08:34;;;;;;;8.18;3.80;;;;;;;16.38;98.35;96340.78;5042486;28;20320;-69
2023/05/09 08:11:01;;;;;;;10.70;5.70;;;;;;;16.23;100.00;96329.56;5042760;28;20204;-69
2023/05/09 08:13:28;;;;;;;11.57;5.13;;;;;;;16.52;99.14;96321.06;5043311;28;20202;-69
2023/05/09 08:15:55;;;;;;;11.68;5.07;;;;;;;16.68;98.10;96324.06;5043035;28;20586;-68
2023/05/09 08:18:21;;;;;;;11.00;5.72;;;;;;;16.93;97.98;96316.16;5042491;28;20216;-68
2023/05/09 08:20:49;;;;;;;14.73;5.82;;;;;;;17.02;90.65;96314.88;5042902;28;20835;-69
2023/05/09 08:23:16;;;;;;;9.35;5.13;;;;;;;17.05;88.03;96319.78;5042971;28;20288;-68
2023/05/09 08:25:42;;;;;;;13.20;4.97;;;;;;;17.12;89.31;96316.06;5042719;28;20231;-69
2023/05/09 08:28:09;;;;;;;8.65;4.57;;;;;;;17.03;95.11;96312.00;5042093;28;20228;-70
2023/05/09 08:30:37;;;;;;;11.80;4.47;;;;;;;16.86;94.01;96307.41;5042689;28;20197;-70
2023/05/09 08:33:04;;;;;;;13.07;5.43;;;;;;;17.09;91.82;96305.81;5042500;28;20197;-68
2023/05/09 08:35:30;;;;;;;9.85;4.68;;;;;;;16.96;94.44;96295.25;5042660;28;20356;-71
2023/05/09 08:37:56;;;;;;;8.75;4.53;;;;;;;17.14;93.64;96301.50;5041824;28;20228;-70
2023/05/09 08:40:23;;;;;;;18.50;6.30;;;;;;;16.73;93.08;96288.84;5042473;28;20205;-69
2023/05/09 08:42:50;;;;;;;12.82;4.68;;;;;;;17.01;92.78;96291.97;5042288;28;20205;-70
2023/05/09 08:45:22;;;;;;;11.23;5.97;;;;;;;17.53;96.18;96292.41;5042445;28;20232;-69
2023/05/09 08:47:50;;;;;;;11.40;4.50;;;;;;;17.50;92.44;96293.66;5042200;28;20201;-69
2023/05/09 08:50:17;;;;;;;14.85;5.63;;;;;;;17.68;91.31;96283.03;5042247;28;20205;-70
2023/05/09 08:52:44;;;;;;;13.27;5.30;;;;;;;18.07;94.76;96275.44;5042377;28;20212;-70
2023/05/09 08:55:11;;;;;;;10.77;5.38;;;;;;;18.35;87.87;96267.75;5042443;28;20204;-70
2023/05/09 08:57:38;;;;;;;9.73;4.05;;;;;;;18.37;84.30;96269.16;5041931;28;20197;-70
2023/05/09 09:00:05;;;;;;;10.93;5.55;;;;;;;18.02;85.05;96264.63;5042102;28;20253;-67
2023/05/09 09:02:33;;;;;;;11.70;4.40;;;;;;;17.72;91.43;96268.25;5042278;28;20773;-70
2023/05/09 09:05:01;;;;;;;11.13;5.32;;;;;;;18.01;95.44;96264.84;5042137;28;20622;-69
2023/05/09 09:07:29;;;;;;;11.23;4.25;;;;;;;18.25;92.86;96258.66;5041547;28;20778;-69
2023/05/09 09:09:57;;;;;;;12.18;5.25;;;;;;;18.22;89.45;96267.13;5042034;28;20198;-69
2023/05/09 09:12:24;;;;;;;13.65;5.05;;;;;;;18.58;96.21;96252.69;5042214;28;20467;-69
2023/05/09 09:14:54;;;;;;;9.52;4.50;;;;;;;18.73;90.10;96257.63;5042288;28;20208;-70
2023/05/09 09:17:26;;;;;;;9.07;4.07;;;;;;;18.64;95.45;96246.44;5041522;28;20236;-69
2023/05/09 09:19:55;;;;;;;8.38;4.43;;;;;;;18.75;92.69;96259.03;5042006;28;20236;-70
2023/05/09 09:22:24;;;;;;;10.57;4.90;;;;;;;18.65;90.29;96248.06;5042162;28;20208;-70
2023/05/09 09:24:51;;;;;;;11.23;5.40;;;;;;;18.88;84.24;96242.81;5042253;28;20897;-71
2023/05/09 09:27:18;;;;;;;11.30;4.57;;;;;;;18.91;88.93;96231.66;5041746;28;20225;-69
2023/05/09 09:29:44;;;;;;;10.48;4.72;;;;;;;18.91;86.11;96237.00;5041766;28;20252;-68
2023/05/09 09:32:11;;;;;;;12.30;5.28;;;;;;;19.20;84.52;96241.53;5042524;28;20209;-68
2023/05/09 09:34:37;;;;;;;8.25;3.38;;;;;;;19.13;84.91;96230.94;5042243;28;20197;-69
2023/05/09 09:37:06;;;;;;;6.80;3.63;;;;;;;19.51;85.60;96222.50;5041790;28;20221;-69
2023/05/09 09:39:34;;;;;;;7.82;3.92;;;;;;;19.70;89.76;96214.13;5041342;28;20202;-69
2023/05/09 09:42:10;;;;;;;9.63;4.85;;;;;;;19.89;81.44;96205.72;5042006;28;20244;-70
2023/05/09 09:44:37;;;;;;;7.38;3.53;;;;;;;19.57;86.04;96200.19;5041816;28;20231;-68
2023/05/09 09:47:03;;;;;;;9.50;4.25;;;;;;;19.72;88.38;96196.81;5041744;28;20216;-69
2023/05/09 09:49:30;;;;;;;9.55;4.30;;;;;;;19.75;80.73;96192.84;5041703;28;20208;-69
2023/05/09 09:51:58;;;;;;;9.73;3.88;;;;;;;19.89;79.40;96188.88;5045577;28;20216;-69
2023/05/09 09:54:26;;;;;;;6.50;2.97;;;;;;;20.08;81.76;96183.16;5045423;28;20209;-69
2023/05/09 09:56:55;;;;;;;7.57;3.92;;;;;;;19.58;87.30;96176.69;5045256;28;20318;-69
2023/05/09 09:59:23;;;;;;;9.60;4.25;;;;;;;19.57;86.67;96191.09;5045328;28;20563;-70
2023/05/09 10:01:55;;;;;;;6.32;3.42;;;;;;;19.76;81.75;96181.13;5045506;28;20251;-70
2023/05/09 10:04:22;;;;;;;8.80;3.60;;;;;;;19.44;84.33;96179.06;5045404;28;20205;-68
2023/05/09 10:06:53;;;;;;;7.63;3.35;;;;;;;19.66;83.08;96181.69;5045661;28;20525;-69
2023/05/09 10:09:21;;;;;;;7.05;3.10;;;;;;;19.74;86.80;96177.84;5044965;28;20209;-69
2023/05/09 10:11:49;;;;;;;8.95;3.55;;;;;;;19.83;80.87;96169.25;5044946;28;20208;-69
2023/05/09 10:14:19;;;;;;;6.38;3.13;;;;;;;19.76;80.03;96165.88;5045196;28;20193;-69
2023/05/09 10:16:47;;;;;;;6.93;2.80;;;;;;;19.72;84.98;96161.25;5045190;28;20221;-68
2023/05/09 10:19:17;;;;;;;7.10;3.30;;;;;;;19.71;84.40;96160.41;5044629;28;20201;-69
2023/05/09 10:21:46;;;;;;;7.13;3.50;;;;;;;19.91;83.02;96152.84;5044984;28;20584;-69
2023/05/09 10:24:13;;;;;;;5.53;2.67;;;;;;;20.09;86.56;96158.03;5045034;28;20205;-68
2023/05/09 10:26:46;;;;;;;8.50;3.30;;;;;;;20.19;83.40;96150.22;5045335;28;20225;-69
2023/05/09 10:29:13;;;;;;;4.47;2.40;;;;;;;20.07;83.47;96148.63;5044059;28;20232;-69
2023/05/09 10:31:43;;;;;;;4.78;2.83;;;;;;;20.11;80.98;96144.41;5044741;28;20237;-69
2023/05/09 10:34:11;;;;;;;6.03;2.63;;;;;;;20.26;82.90;96142.84;5044964;28;20201;-69
2023/05/09 10:36:38;;;;;;;5.95;2.70;;;;;;;20.48;80.44;96141.13;5044659;28;20244;-69
2023/05/09 10:39:05;;;;;;;5.28;2.28;;;;;;;20.96;83.55;96128.88;5043893;28;20209;-69
2023/05/09 10:41:32;;;;;;;4.65;2.70;;;;;;;21.35;80.62;96128.72;5044615;28;20201;-69
2023/05/09 10:43:59;;;;;;;4.78;2.38;;;;;;;21.44;75.01;96124.56;5045009;28;20231;-68
2023/05/09 10:46:27;;;;;;;5.82;2.67;;;;;;;21.67;77.83;96110.97;5044482;28;20228;-71
2023/05/09 10:48:55;;;;;;;3.78;1.90;;;;;;;22.14;77.53;96115.56;5044316;28;20625;-68
2023/05/09 10:51:23;;;;;;;6.95;2.50;;;;;;;21.58;73.21;96107.09;5044919;28;20221;-69
2023/05/09 10:53:50;;;;;;;5.28;2.30;;;;;;;21.86;76.74;96104.22;5044877;28;20205;-70
2023/05/09 10:56:26;;;;;;;5.57;2.30;;;;;;;21.53;72.88;96101.66;5044563;28;20706;-68
2023/05/09 10:58:53;;;;;;;5.20;2.15;;;;;;;21.17;76.75;96090.66;5043995;28;20209;-70
2023/05/09 11:01:31;;;;;;;6.22;3.00;;;;;;;21.01;75.77;96088.78;5044426;28;20313;-67
2023/05/09 11:04:00;;;;;;;4.22;2.60;;;;;;;20.96;77.60;96086.84;5044550;28;20711;-68
2023/05/09 11:06:46;;;;;;;5.20;2.13;;;;;;;21.12;75.55;96064.56;5044969;28;20239;-69
2023/05/09 11:09:27;;;;;;;8.68;2.97;;;;;;;20.49;78.44;96067.78;5044085;28;20210;-69
2023/05/09 11:11:56;;;;;;;3.80;2.08;;;;;;;20.53;80.90;96063.56;5044462;28;20240;-68
2023/05/09 11:14:30;;;;;;;2.92;1.88;;;;;;;20.60;78.32;96054.34;5044379;28;20270;-68
2023/05/09 11:16:58;;;;;;;3.53;2.13;;;;;;;20.36;83.49;96062.75;5045199;28;20227;-69
2023/05/09 11:19:37;;;;;;;5.85;2.85;;;;;;;20.70;79.27;96057.19;5043531;28;20657;-68
2023/05/09 11:22:13;;;;;;;6.43;2.92;;;;;;;20.52;79.87;96048.56;5043905;28;20259;-68
2023/05/09 11:24:40;;;;;;;3.85;1.83;;;;;;;20.47;82.78;96048.50;5043926;28;20543;-71
2023/05/09 11:27:14;;;;;;;6.07;1.85;;;;;;;21.05;74.35;96039.00;5043946;28;20225;-68
2023/05/09 11:29:45;;;;;;;4.70;2.17;;;;;;;20.85;75.90;96036.84;5043804;28;20200;-70
2023/05/09 11:32:14;;;;;;;6.78;2.60;;;;;;;21.39;76.03;96027.97;5043877;28;20201;-69
2023/05/09 11:34:43;;;;;;;5.07;2.00;;;;;;;21.77;74.85;96025.25;5043914;28;20980;-68
2023/05/09 11:37:11;;;;;;;4.13;2.08;;;;;;;21.55;75.00;96021.78;5043547;28;20704;-69
2023/05/09 11:39:56;;;;;;;3.63;2.05;;;;;;;22.03;74.36;96019.91;5043209;28;20208;-70
2023/05/09 11:42:23;;;;;;;3.55;1.90;;;;;;;21.36;78.18;96022.28;5043645;28;20201;-70
2023/05/09 11:44:51;;;;;;;2.78;1.92;;;;;;;21.83;76.13;96024.22;5043211;28;20296;-70
2023/05/09 11:47:17;;;;;;;2.45;1.35;;;;;;;21.79;73.44;96007.84;5042857;28;20221;-71
2023/05/09 11:49:45;;;;;;;2.75;1.65;;;;;;;22.58;67.79;96007.84;5043392;28;20201;-68